Time;durP1;ratioP1;P1;durP2;ratioP2;P2;SDS_P1;SDS_P2;PMS_P1;PMS_P2;Temp;Humidity;BMP_temperature;BMP_pressure;BME280_temperature;BME280_humidity;BME280_pressure;Samples;Min_cycle;Max_cycle;Signal;HPM_P1;HPM_P2
2024/03/27 00:01:37;;;;;;;5.17;1.90;;;10.50;99.90;;;;;;5071554;28;20037;-50
2024/03/27 00:04:02;;;;;;;4.17;1.83;;;10.40;99.90;;;;;;5071841;28;20123;-52
2024/03/27 00:06:28;;;;;;;3.20;2.00;;;10.40;99.90;;;;;;5071827;28;20027;-49
2024/03/27 00:08:54;;;;;;;7.07;2.20;;;10.30;99.90;;;;;;5071795;28;20024;-51
2024/03/27 00:11:24;;;;;;;4.60;1.60;;;10.30;99.90;;;;;;5071722;28;20471;-50
2024/03/27 00:13:50;;;;;;;;;;;10.30;99.90;;;;;;5072241;28;20548;-51
2024/03/27 00:16:15;;;;;;;3.10;1.63;;;10.30;99.90;;;;;;5071548;28;20007;-50
2024/03/27 00:18:41;;;;;;;5.03;2.17;;;10.40;99.90;;;;;;5053897;28;20440;-50
2024/03/27 00:21:06;;;;;;;2.97;1.60;;;10.40;99.90;;;;;;5071714;28;20032;-48
2024/03/27 00:23:33;;;;;;;4.57;1.80;;;10.30;99.90;;;;;;5071617;28;20534;-49
2024/03/27 00:25:59;;;;;;;4.97;2.20;;;10.20;99.90;;;;;;5071441;28;20062;-50
2024/03/27 00:28:25;;;;;;;4.73;1.83;;;10.20;99.90;;;;;;5071577;28;20393;-50
2024/03/27 00:30:51;;;;;;;6.00;2.10;;;10.20;99.90;;;;;;5071497;28;20035;-49
2024/03/27 00:33:17;;;;;;;5.63;2.10;;;10.20;99.90;;;;;;5071525;28;20036;-50
2024/03/27 00:35:55;;;;;;;4.27;1.80;;;10.10;99.90;;;;;;5071283;28;20108;-48
2024/03/27 00:38:21;;;;;;;4.03;1.80;;;10.00;99.90;;;;;;5071447;28;20039;-50
2024/03/27 00:40:50;;;;;;;8.47;2.20;;;10.00;99.90;;;;;;5071482;28;20066;-49
2024/03/27 00:43:17;;;;;;;3.17;1.63;;;9.90;99.90;;;;;;5053428;28;20477;-53
2024/03/27 00:45:43;;;;;;;4.07;1.90;;;9.80;99.90;;;;;;5071236;28;20035;-49
2024/03/27 00:48:09;;;;;;;7.03;1.70;;;9.70;99.90;;;;;;5071405;28;20025;-48
2024/03/27 00:50:35;;;;;;;5.27;1.90;;;9.70;99.90;;;;;;5071324;28;20051;-50
2024/03/27 00:53:01;;;;;;;4.93;1.80;;;9.80;99.90;;;;;;5071528;28;20482;-50
2024/03/27 00:55:27;;;;;;;2.67;1.50;;;9.90;99.90;;;;;;5071081;28;20036;-48
2024/03/27 00:57:52;;;;;;;3.63;1.83;;;9.90;99.90;;;;;;5071502;28;20098;-48
2024/03/27 01:00:18;;;;;;;5.47;2.10;;;9.90;99.90;;;;;;5071695;28;20028;-49
2024/03/27 01:02:47;;;;;;;4.00;1.80;;;9.90;99.90;;;;;;5071750;28;20504;-50
2024/03/27 01:05:13;;;;;;;5.07;1.95;;;9.90;99.90;;;;;;5071678;28;20029;-50
2024/03/27 01:07:38;;;;;;;6.13;1.90;;;9.90;99.90;;;;;;5071692;28;20040;-48
2024/03/27 01:10:05;;;;;;;4.43;1.60;;;9.90;99.90;;;;;;5053825;28;20032;-48
2024/03/27 01:12:32;;;;;;;6.63;1.90;;;9.90;99.90;;;;;;5072736;28;20029;-48
2024/03/27 01:14:57;;;;;;;4.67;1.90;;;10.00;99.90;;;;;;5075829;28;20036;-48
2024/03/27 01:17:23;;;;;;;4.80;1.60;;;10.00;99.90;;;;;;5075545;28;20036;-48
2024/03/27 01:19:49;;;;;;;3.83;1.77;;;10.00;99.90;;;;;;5075965;28;20032;-48
2024/03/27 01:22:15;;;;;;;4.23;1.93;;;10.10;99.90;;;;;;5076384;28;20024;-51
2024/03/27 01:24:41;;;;;;;2.57;1.60;;;10.00;99.90;;;;;;5076595;28;20032;-49
2024/03/27 01:27:06;;;;;;;5.37;1.93;;;10.00;99.90;;;;;;5076736;28;20103;-49
2024/03/27 01:29:32;;;;;;;3.47;1.60;;;10.00;99.90;;;;;;5075401;28;20043;-49
2024/03/27 01:31:58;;;;;;;4.80;2.27;;;10.10;99.90;;;;;;5057615;28;20071;-51
2024/03/27 01:34:23;;;;;;;4.00;1.87;;;10.10;99.90;;;;;;5074353;28;20131;-48
2024/03/27 01:36:49;;;;;;;4.97;1.83;;;10.10;99.90;;;;;;5074330;28;20025;-51
2024/03/27 01:39:14;;;;;;;4.70;1.87;;;10.10;99.90;;;;;;5074316;28;20029;-50
2024/03/27 01:41:40;;;;;;;5.10;1.87;;;10.10;99.90;;;;;;5074130;28;20491;-49
2024/03/27 01:44:16;;;;;;;3.67;1.77;;;10.10;99.90;;;;;;5056385;28;20111;-51
2024/03/27 01:46:42;;;;;;;3.90;1.80;;;10.10;99.90;;;;;;5056197;28;20024;-51
2024/03/27 01:49:07;;;;;;;3.50;1.73;;;10.10;99.90;;;;;;5074225;28;20067;-51
2024/03/27 01:51:33;;;;;;;4.90;1.90;;;10.10;99.90;;;;;;5056138;28;20515;-51
2024/03/27 01:53:59;;;;;;;4.80;2.40;;;10.10;99.90;;;;;;5074110;28;20036;-51
2024/03/27 01:56:26;;;;;;;5.77;2.47;;;10.20;99.90;;;;;;5073646;28;20037;-49
2024/03/27 01:58:52;;;;;;;6.77;3.50;;;10.10;99.90;;;;;;5074175;28;20028;-49
2024/03/27 02:01:18;;;;;;;7.27;3.40;;;10.20;99.90;;;;;;5073977;28;20472;-47
2024/03/27 02:03:45;;;;;;;13.27;5.63;;;10.30;99.90;;;;;;5073865;28;20056;-50
2024/03/27 02:06:11;;;;;;;14.60;6.30;;;10.30;99.90;;;;;;5073741;28;20490;-48
2024/03/27 02:08:36;;;;;;;13.63;7.07;;;10.20;99.90;;;;;;5073745;28;20032;-52
2024/03/27 02:11:02;;;;;;;16.33;7.50;;;10.20;99.90;;;;;;5073695;28;20432;-51
2024/03/27 02:13:28;;;;;;;15.03;8.03;;;10.20;99.90;;;;;;5073726;28;20079;-51
2024/03/27 02:16:00;;;;;;;17.87;8.97;;;10.30;99.90;;;;;;5073497;28;20075;-49
2024/03/27 02:18:26;;;;;;;18.03;9.00;;;10.20;99.90;;;;;;5073528;28;20531;-51
2024/03/27 02:20:52;;;;;;;18.73;9.60;;;10.20;99.90;;;;;;5073493;28;20025;-51
2024/03/27 02:23:21;;;;;;;21.00;9.83;;;10.30;99.90;;;;;;5072894;28;20033;-48
2024/03/27 02:25:56;;;;;;;20.63;10.20;;;10.20;99.90;;;;;;5072698;28;20025;-49
2024/03/27 02:28:22;;;;;;;22.43;10.13;;;10.20;99.90;;;;;;5073445;28;20086;-52
2024/03/27 02:30:48;;;;;;;22.43;9.83;;;10.20;99.90;;;;;;5073301;28;20420;-49
2024/03/27 02:33:13;;;;;;;22.07;9.83;;;10.20;99.90;;;;;;5073361;28;20035;-49
2024/03/27 02:35:39;;;;;;;20.67;9.13;;;10.20;99.90;;;;;;5073439;28;20044;-50
2024/03/27 02:38:04;;;;;;;20.50;9.67;;;10.30;99.90;;;;;;5073209;28;20336;-52
2024/03/27 02:40:30;;;;;;;16.87;8.60;;;10.30;99.90;;;;;;5073124;28;20397;-48
2024/03/27 02:42:55;;;;;;;21.43;8.07;;;10.30;99.90;;;;;;5073171;28;20492;-49
2024/03/27 02:45:21;;;;;;;15.37;6.53;;;10.30;99.90;;;;;;5072941;28;20020;-51
2024/03/27 02:47:46;;;;;;;10.80;5.57;;;10.30;99.90;;;;;;5055161;28;20598;-48
2024/03/27 02:50:12;;;;;;;13.30;5.50;;;10.30;99.90;;;;;;5072898;28;20037;-49
2024/03/27 02:52:39;;;;;;;10.17;4.60;;;10.30;99.90;;;;;;5072859;28;20086;-49
2024/03/27 02:55:05;;;;;;;7.07;3.43;;;10.30;99.90;;;;;;5072705;28;20041;-53
2024/03/27 02:57:30;;;;;;;8.30;3.43;;;10.20;99.90;;;;;;5072685;28;20044;-52
2024/03/27 02:59:56;;;;;;;7.07;3.13;;;10.20;99.90;;;;;;5072800;28;20021;-48
2024/03/27 03:02:21;;;;;;;5.60;2.80;;;10.20;99.90;;;;;;5072845;28;20025;-52
2024/03/27 03:04:47;;;;;;;5.73;2.53;;;10.20;99.90;;;;;;5072649;28;20495;-51
2024/03/27 03:07:13;;;;;;;6.00;3.00;;;10.20;99.90;;;;;;5072758;28;20032;-48
2024/03/27 03:09:38;;;;;;;6.43;2.53;;;10.20;99.90;;;;;;5054609;28;20119;-51
2024/03/27 03:12:04;;;;;;;5.07;2.40;;;10.20;99.90;;;;;;5072806;28;20397;-48
2024/03/27 03:14:30;;;;;;;5.73;1.90;;;10.20;99.90;;;;;;5072593;28;20103;-49
2024/03/27 03:16:55;;;;;;;5.23;2.10;;;10.20;99.90;;;;;;5073023;28;20063;-49
2024/03/27 03:19:22;;;;;;;6.23;2.10;;;10.20;99.90;;;;;;5073407;28;20532;-49
2024/03/27 03:21:47;;;;;;;5.43;1.90;;;10.10;99.90;;;;;;5073056;28;20405;-49
2024/03/27 03:24:13;;;;;;;5.07;2.20;;;10.10;99.90;;;;;;5073416;28;20032;-48
2024/03/27 03:26:39;;;;;;;4.77;2.00;;;10.10;99.90;;;;;;5073021;28;20035;-50
2024/03/27 03:29:04;;;;;;;4.63;2.20;;;10.00;99.90;;;;;;5072602;28;20040;-52
2024/03/27 03:31:30;;;;;;;4.20;1.77;;;10.00;99.90;;;;;;5072223;28;20109;-49
2024/03/27 03:33:55;;;;;;;4.27;1.90;;;9.90;99.90;;;;;;5054386;28;20042;-49
2024/03/27 03:36:21;;;;;;;3.80;1.80;;;9.90;99.90;;;;;;5071593;28;20033;-48
2024/03/27 03:38:47;;;;;;;5.60;2.10;;;9.80;99.90;;;;;;5072014;28;20042;-51
2024/03/27 03:41:13;;;;;;;4.40;2.00;;;9.90;99.90;;;;;;5072081;28;20024;-48
2024/03/27 03:43:39;;;;;;;4.57;2.10;;;10.00;99.90;;;;;;5072011;28;20045;-49
2024/03/27 03:46:05;;;;;;;5.17;2.13;;;10.00;99.90;;;;;;5053921;28;20037;-48
2024/03/27 03:48:31;;;;;;;3.50;1.73;;;10.00;99.90;;;;;;5072040;28;20032;-48
2024/03/27 03:50:57;;;;;;;5.77;1.93;;;10.00;99.90;;;;;;5072377;28;20663;-52
2024/03/27 03:53:22;;;;;;;4.17;1.90;;;9.90;99.90;;;;;;5072233;28;20485;-50
2024/03/27 03:55:48;;;;;;;4.23;2.00;;;9.80;99.90;;;;;;5071608;28;20077;-47
2024/03/27 03:58:15;;;;;;;4.80;1.90;;;9.70;99.90;;;;;;5071807;28;20029;-49
2024/03/27 04:00:40;;;;;;;4.23;1.77;;;9.60;99.90;;;;;;5071796;28;20474;-51
2024/03/27 04:03:06;;;;;;;4.53;2.10;;;9.50;99.90;;;;;;5071861;28;20033;-48
2024/03/27 04:05:32;;;;;;;6.20;2.30;;;9.50;99.90;;;;;;5071527;28;20043;-49
2024/03/27 04:07:57;;;;;;;4.67;1.90;;;9.50;99.90;;;;;;5071793;28;20396;-49
2024/03/27 04:10:23;;;;;;;6.07;1.90;;;9.50;99.90;;;;;;5071799;28;20473;-48
2024/03/27 04:12:49;;;;;;;3.47;1.97;;;9.50;99.90;;;;;;5071751;28;20419;-48
2024/03/27 04:15:14;;;;;;;4.47;1.90;;;9.50;99.90;;;;;;5071611;28;20032;-50
2024/03/27 04:17:40;;;;;;;3.13;1.93;;;9.60;99.90;;;;;;5072022;28;20044;-50
2024/03/27 04:20:10;;;;;;;4.00;1.80;;;9.50;99.90;;;;;;5071570;28;20060;-52
2024/03/27 04:22:36;;;;;;;4.43;2.20;;;9.50;99.90;;;;;;5071599;28;20098;-50
2024/03/27 04:25:03;;;;;;;5.17;1.97;;;9.50;99.90;;;;;;5071624;28;20073;-53
2024/03/27 04:27:29;;;;;;;3.47;1.80;;;9.50;99.90;;;;;;5071661;28;20032;-53
2024/03/27 04:29:56;;;;;;;3.70;2.20;;;9.50;99.90;;;;;;5071465;28;20032;-50
2024/03/27 04:32:22;;;;;;;4.73;2.00;;;9.40;99.90;;;;;;5071968;28;20033;-53
2024/03/27 04:34:48;;;;;;;4.63;2.00;;;9.40;99.90;;;;;;5053507;28;20107;-51
2024/03/27 04:37:13;;;;;;;5.53;2.17;;;9.30;99.90;;;;;;5071260;28;20116;-50
2024/03/27 04:39:39;;;;;;;5.23;2.30;;;9.30;99.90;;;;;;5071693;28;20074;-51
2024/03/27 04:42:08;;;;;;;4.20;1.87;;;9.20;99.90;;;;;;5071538;28;20518;-51
2024/03/27 04:44:34;;;;;;;6.18;2.30;;;9.10;99.90;;;;;;5053489;28;20385;-51
2024/03/27 04:47:00;;;;;;;4.83;3.03;;;9.10;99.90;;;;;;5071463;28;20032;-50
2024/03/27 04:49:25;;;;;;;4.10;2.30;;;9.10;99.90;;;;;;5075392;28;20029;-51
2024/03/27 04:51:51;;;;;;;4.47;2.40;;;9.00;99.90;;;;;;5075177;28;20039;-49
2024/03/27 04:54:17;;;;;;;5.17;2.40;;;9.00;99.90;;;;;;5075242;28;20543;-51
2024/03/27 04:56:42;;;;;;;5.30;2.83;;;8.90;99.90;;;;;;5056935;28;20043;-48
2024/03/27 04:59:09;;;;;;;6.60;3.33;;;8.90;99.90;;;;;;5075157;28;20024;-52
2024/03/27 05:01:35;;;;;;;4.37;2.10;;;9.00;99.90;;;;;;5074953;28;20036;-54
2024/03/27 05:04:02;;;;;;;5.43;2.40;;;9.00;99.90;;;;;;5074999;28;20024;-53
2024/03/27 05:06:27;;;;;;;4.67;1.90;;;9.10;99.90;;;;;;5074732;28;20500;-51
2024/03/27 05:08:53;;;;;;;7.07;2.70;;;9.20;99.90;;;;;;5057041;28;20021;-52
2024/03/27 05:11:19;;;;;;;5.40;2.13;;;9.20;99.90;;;;;;5074946;28;20550;-51
2024/03/27 05:13:45;;;;;;;4.83;2.20;;;9.30;99.90;;;;;;5075036;28;20032;-52
2024/03/27 05:16:12;;;;;;;5.03;2.23;;;9.30;99.90;;;;;;5074734;28;20098;-51
2024/03/27 05:18:38;;;;;;;4.83;2.20;;;9.50;99.90;;;;;;5074849;28;20032;-51
2024/03/27 05:21:04;;;;;;;5.17;2.10;;;9.50;99.90;;;;;;5075071;28;20113;-48
2024/03/27 05:23:30;;;;;;;7.67;1.90;;;9.50;99.90;;;;;;5074893;28;20036;-50
2024/03/27 05:25:55;;;;;;;3.87;2.07;;;9.50;99.90;;;;;;5074725;28;20027;-51
2024/03/27 05:28:21;;;;;;;5.60;2.17;;;9.70;99.90;;;;;;5074789;28;20397;-53
2024/03/27 05:30:47;;;;;;;3.53;1.90;;;9.70;99.90;;;;;;5074657;28;20179;-51
2024/03/27 05:33:12;;;;;;;5.83;2.03;;;9.70;99.90;;;;;;5074806;28;20054;-52
2024/03/27 05:35:38;;;;;;;4.20;1.90;;;9.80;99.90;;;;;;5074304;28;20492;-50
2024/03/27 05:38:04;;;;;;;17.83;3.20;;;9.90;99.90;;;;;;5074328;28;20033;-51
2024/03/27 05:40:30;;;;;;;2.80;1.70;;;9.90;99.90;;;;;;5074327;28;20028;-50
2024/03/27 05:42:57;;;;;;;5.47;2.20;;;9.90;99.90;;;;;;5074321;28;20040;-50
2024/03/27 05:45:22;;;;;;;5.00;1.90;;;9.90;99.90;;;;;;5074103;28;20123;-52
2024/03/27 05:47:48;;;;;;;4.70;1.90;;;9.80;99.90;;;;;;5074197;28;20150;-51
2024/03/27 05:50:14;;;;;;;5.63;2.30;;;9.80;99.90;;;;;;5073992;28;20477;-53
2024/03/27 05:52:39;;;;;;;3.27;1.90;;;9.70;99.90;;;;;;5074243;28;20024;-49
2024/03/27 05:55:05;;;;;;;4.97;2.20;;;9.80;99.90;;;;;;5073928;28;20519;-52
2024/03/27 05:57:31;;;;;;;5.40;2.30;;;9.80;99.90;;;;;;5073855;28;20123;-52
2024/03/27 05:59:57;;;;;;;6.63;2.00;;;9.80;99.90;;;;;;5073479;28;20032;-52
2024/03/27 06:02:22;;;;;;;8.80;3.17;;;9.80;99.90;;;;;;5073936;28;20040;-51
2024/03/27 06:04:48;;;;;;;19.27;6.20;;;9.90;99.90;;;;;;5074009;28;20024;-49
2024/03/27 06:07:13;;;;;;;8.37;2.90;;;10.00;99.90;;;;;;5073779;28;20428;-51
2024/03/27 06:09:39;;;;;;;6.23;2.60;;;10.00;99.90;;;;;;5073741;28;20555;-51
2024/03/27 06:12:05;;;;;;;7.20;2.47;;;10.00;99.90;;;;;;5073774;28;20032;-50
2024/03/27 06:14:31;;;;;;;5.60;2.23;;;10.10;99.90;;;;;;5073497;28;20039;-50
2024/03/27 06:16:57;;;;;;;6.60;2.40;;;10.10;99.90;;;;;;5073627;28;20028;-49
2024/03/27 06:19:22;;;;;;;5.20;2.70;;;10.20;99.90;;;;;;5073457;28;20041;-52
2024/03/27 06:21:48;;;;;;;6.50;2.40;;;10.10;99.90;;;;;;5073454;28;20024;-52
2024/03/27 06:24:13;;;;;;;7.47;2.37;;;10.10;99.90;;;;;;5073543;28;20469;-50
2024/03/27 06:26:39;;;;;;;5.80;2.53;;;10.20;99.90;;;;;;5073330;28;20035;-48
2024/03/27 06:29:04;;;;;;;7.73;2.83;;;10.20;99.90;;;;;;5073403;28;20059;-53
2024/03/27 06:31:30;;;;;;;5.60;3.00;;;10.20;99.90;;;;;;5073236;28;20385;-54
2024/03/27 06:33:56;;;;;;;6.17;2.60;;;10.20;99.90;;;;;;5073222;28;20073;-47
2024/03/27 06:36:22;;;;;;;6.93;2.80;;;10.30;99.90;;;;;;5073025;28;20032;-49
2024/03/27 06:38:50;;;;;;;7.90;3.30;;;10.30;99.90;;;;;;5073056;28;20548;-52
2024/03/27 06:41:15;;;;;;;5.93;2.67;;;10.30;99.90;;;;;;5073082;28;20096;-52
2024/03/27 06:43:42;;;;;;;5.53;2.57;;;10.30;99.90;;;;;;5072962;28;20502;-51
2024/03/27 06:46:08;;;;;;;7.47;3.10;;;10.40;99.90;;;;;;5072857;28;20497;-49
2024/03/27 06:48:43;;;;;;;7.33;2.60;;;10.50;99.90;;;;;;5072948;28;20028;-51
2024/03/27 06:51:09;;;;;;;6.30;3.00;;;10.60;99.90;;;;;;5072944;28;20039;-51
2024/03/27 06:53:35;;;;;;;5.80;2.60;;;10.60;99.90;;;;;;5072905;28;20028;-52
2024/03/27 06:56:07;;;;;;;6.83;3.30;;;10.60;99.90;;;;;;5072693;28;20037;-51
2024/03/27 06:58:32;;;;;;;5.97;2.73;;;10.70;99.90;;;;;;5072733;28;20047;-51
2024/03/27 07:00:58;;;;;;;5.13;2.60;;;10.70;99.90;;;;;;5072735;28;20020;-51
2024/03/27 07:03:24;;;;;;;6.67;2.50;;;10.70;99.90;;;;;;5072761;28;20024;-52
2024/03/27 07:05:50;;;;;;;5.47;2.77;;;10.70;99.90;;;;;;5072559;28;20063;-53
2024/03/27 07:08:16;;;;;;;6.27;2.50;;;10.70;99.90;;;;;;5072723;28;20037;-53
2024/03/27 07:10:41;;;;;;;6.03;2.40;;;10.80;99.90;;;;;;5071870;28;20036;-51
2024/03/27 07:13:07;;;;;;;4.73;2.30;;;10.80;99.90;;;;;;5072515;28;20033;-53
2024/03/27 07:15:33;;;;;;;4.97;2.60;;;10.90;99.90;;;;;;5072267;28;20397;-52
2024/03/27 07:17:58;;;;;;;6.57;2.10;;;10.90;99.90;;;;;;5072292;28;20077;-50
2024/03/27 07:20:24;;;;;;;6.33;2.50;;;11.00;99.90;;;;;;5072305;28;20036;-53
2024/03/27 07:22:49;;;;;;;5.77;2.73;;;11.00;99.90;;;;;;5072368;28;20045;-50
2024/03/27 07:25:15;;;;;;;5.87;2.57;;;11.00;99.90;;;;;;5071942;28;20485;-51
2024/03/27 07:27:41;;;;;;;4.60;2.30;;;11.00;99.90;;;;;;5072264;28;20028;-50
2024/03/27 07:30:07;;;;;;;7.27;2.20;;;10.90;99.90;;;;;;5054316;28;20181;-53
2024/03/27 07:32:32;;;;;;;3.97;2.10;;;10.90;99.90;;;;;;5072249;28;20060;-52
2024/03/27 07:34:58;;;;;;;4.83;2.47;;;10.90;99.90;;;;;;5072111;28;20107;-52
2024/03/27 07:37:24;;;;;;;5.87;2.23;;;10.90;99.90;;;;;;5072017;28;20112;-53
2024/03/27 07:39:49;;;;;;;6.90;2.30;;;10.80;99.90;;;;;;5071950;28;20031;-51
2024/03/27 07:42:15;;;;;;;3.37;2.07;;;10.90;99.90;;;;;;5072289;28;20665;-53
2024/03/27 07:44:41;;;;;;;7.60;2.43;;;10.90;99.90;;;;;;5071930;28;20117;-52
2024/03/27 07:47:07;;;;;;;4.53;1.90;;;10.90;99.90;;;;;;5072007;28;20048;-52
2024/03/27 07:49:33;;;;;;;4.63;2.00;;;10.90;99.90;;;;;;5071998;28;20578;-52
2024/03/27 07:51:58;;;;;;;3.40;1.90;;;11.00;99.90;;;;;;5072124;28;20036;-48
2024/03/27 07:54:24;;;;;;;12.57;2.63;;;11.10;99.90;;;;;;5072189;28;20481;-47
2024/03/27 07:57:04;;;;;;;4.60;1.60;;;11.10;99.90;;;;;;5072037;28;20037;-48
2024/03/27 07:59:29;;;;;;;3.33;1.70;;;11.20;99.90;;;;;;5072554;28;20428;-51
2024/03/27 08:01:55;;;;;;;3.23;1.60;;;11.20;99.90;;;;;;5072084;28;20056;-48
2024/03/27 08:04:20;;;;;;;2.57;1.50;;;11.20;99.90;;;;;;5071921;28;20059;-52
2024/03/27 08:06:46;;;;;;;2.93;1.87;;;11.20;99.90;;;;;;5071795;28;20031;-51
2024/03/27 08:09:12;;;;;;;2.93;1.63;;;11.20;99.90;;;;;;5071661;28;20082;-51
2024/03/27 08:11:37;;;;;;;4.47;1.90;;;11.20;99.90;;;;;;5071772;28;20078;-51
2024/03/27 08:14:06;;;;;;;5.67;2.10;;;11.10;99.90;;;;;;5071930;28;20056;-53
2024/03/27 08:16:32;;;;;;;3.60;2.00;;;11.10;99.90;;;;;;5071565;28;20042;-52
2024/03/27 08:18:57;;;;;;;3.50;1.57;;;11.20;99.90;;;;;;5071668;28;20036;-52
2024/03/27 08:21:23;;;;;;;2.97;1.87;;;11.30;99.90;;;;;;5072508;28;20050;-53
2024/03/27 08:23:49;;;;;;;5.17;2.40;;;11.30;99.90;;;;;;5075746;28;20025;-51
2024/03/27 08:26:15;;;;;;;3.67;1.80;;;11.30;99.90;;;;;;5075848;28;20028;-52
2024/03/27 08:28:40;;;;;;;4.10;2.13;;;11.30;99.90;;;;;;5075840;28;20126;-53
2024/03/27 08:31:06;;;;;;;3.43;1.90;;;11.30;99.90;;;;;;5075661;28;20039;-53
2024/03/27 08:33:32;;;;;;;3.23;1.93;;;11.30;99.90;;;;;;5075671;28;20111;-52
2024/03/27 08:36:01;;;;;;;3.13;1.97;;;11.40;99.90;;;;;;5075386;28;20547;-53
2024/03/27 08:38:26;;;;;;;5.45;2.47;;;11.50;99.90;;;;;;5075501;28;20037;-53
2024/03/27 08:40:52;;;;;;;5.17;2.70;;;11.50;99.90;;;;;;5075588;28;20111;-52
2024/03/27 08:43:19;;;;;;;4.87;2.33;;;11.60;99.90;;;;;;5075647;28;20056;-52
2024/03/27 08:45:45;;;;;;;4.47;1.83;;;11.60;99.90;;;;;;5057337;28;20028;-52
2024/03/27 08:48:11;;;;;;;5.50;2.60;;;11.80;99.90;;;;;;5075461;28;20040;-51
2024/03/27 08:50:38;;;;;;;5.13;2.90;;;11.90;99.90;;;;;;5075089;28;20440;-51
2024/03/27 08:53:04;;;;;;;4.93;2.67;;;11.90;99.90;;;;;;5075058;28;20499;-52
2024/03/27 08:55:30;;;;;;;4.20;2.33;;;12.00;99.90;;;;;;5074915;28;20029;-53
2024/03/27 08:57:56;;;;;;;4.63;2.27;;;12.10;99.90;;;;;;5075204;28;20042;-52
2024/03/27 09:00:21;;;;;;;3.70;2.10;;;12.10;99.90;;;;;;5073837;28;20389;-52
2024/03/27 09:02:50;;;;;;;4.20;2.10;;;12.00;99.90;;;;;;5075151;28;20044;-52
2024/03/27 09:05:19;;;;;;;4.65;2.15;;;12.00;99.90;;;;;;5074760;28;20032;-53
2024/03/27 09:07:44;;;;;;;4.50;2.08;;;11.90;99.90;;;;;;5075274;28;20036;-52
2024/03/27 09:10:10;;;;;;;4.00;2.40;;;11.90;99.90;;;;;;5074841;28;20078;-53
2024/03/27 09:12:36;;;;;;;5.23;2.40;;;12.00;99.90;;;;;;5074812;28;20039;-51
2024/03/27 09:15:03;;;;;;;3.57;2.20;;;12.00;99.90;;;;;;5074623;28;20074;-52
2024/03/27 09:17:29;;;;;;;3.00;1.83;;;12.10;99.90;;;;;;5074666;28;20078;-52
2024/03/27 09:19:54;;;;;;;3.10;2.03;;;12.20;99.90;;;;;;5074590;28;20024;-47
2024/03/27 09:22:20;;;;;;;4.50;2.30;;;12.30;99.90;;;;;;5074588;28;20477;-50
2024/03/27 09:24:46;;;;;;;4.13;1.97;;;12.20;99.90;;;;;;5074576;28;20116;-51
2024/03/27 09:27:11;;;;;;;2.63;1.80;;;12.20;99.90;;;;;;5074748;28;20294;-51
2024/03/27 09:29:37;;;;;;;4.03;1.87;;;12.20;99.90;;;;;;5074405;28;20028;-50
2024/03/27 09:32:02;;;;;;;2.70;1.70;;;12.30;99.90;;;;;;5074527;28;20032;-51
2024/03/27 09:34:30;;;;;;;3.80;1.97;;;12.40;99.90;;;;;;5073607;28;20059;-52
2024/03/27 09:36:56;;;;;;;3.13;1.87;;;12.50;99.90;;;;;;5074335;28;20037;-51
2024/03/27 09:39:23;;;;;;;4.50;2.53;;;12.50;99.90;;;;;;5074267;28;20093;-52
2024/03/27 09:41:48;;;;;;;3.60;2.00;;;12.50;99.90;;;;;;5074379;28;20034;-48
2024/03/27 09:44:15;;;;;;;3.90;2.23;;;12.40;99.90;;;;;;5074249;28;20482;-52
2024/03/27 09:46:41;;;;;;;4.83;2.20;;;12.30;99.90;;;;;;5074105;28;20162;-51
2024/03/27 09:49:11;;;;;;;7.20;2.60;;;12.20;99.90;;;;;;5074103;28;20033;-49
2024/03/27 09:51:40;;;;;;;3.67;2.50;;;12.10;99.90;;;;;;5074096;28;20048;-50
2024/03/27 09:54:05;;;;;;;4.70;2.58;;;12.10;99.90;;;;;;5074136;28;20103;-52
2024/03/27 09:56:35;;;;;;;2.87;2.07;;;12.10;99.90;;;;;;5073891;28;20470;-52
2024/03/27 09:59:02;;;;;;;3.93;2.47;;;12.00;99.90;;;;;;5073917;28;20048;-52
2024/03/27 10:01:28;;;;;;;3.70;2.30;;;12.00;99.90;;;;;;5073878;28;20039;-51
2024/03/27 10:03:56;;;;;;;3.57;2.20;;;12.00;99.90;;;;;;5073882;28;20474;-53
2024/03/27 10:06:23;;;;;;;4.30;2.65;;;12.00;99.90;;;;;;5073617;28;20120;-50
2024/03/27 10:08:49;;;;;;;3.47;2.37;;;11.90;99.90;;;;;;5073789;28;20516;-52
2024/03/27 10:11:16;;;;;;;4.07;2.57;;;11.80;99.90;;;;;;5073658;28;20056;-52
2024/03/27 10:13:42;;;;;;;4.60;2.60;;;11.90;99.90;;;;;;5073775;28;20401;-51
2024/03/27 10:16:12;;;;;;;5.37;2.50;;;11.90;99.90;;;;;;5073515;28;20032;-52
2024/03/27 10:18:41;;;;;;;4.38;2.40;;;11.90;99.90;;;;;;5055548;28;20037;-51
2024/03/27 10:21:07;;;;;;;4.40;2.47;;;11.80;99.90;;;;;;5055581;28;20037;-49
2024/03/27 10:23:33;;;;;;;3.93;2.50;;;11.80;99.90;;;;;;5073511;28;20025;-51
2024/03/27 10:26:05;;;;;;;4.00;2.57;;;11.70;99.90;;;;;;5073427;28;20025;-48
2024/03/27 10:28:40;;;;;;;4.27;2.80;;;11.70;99.90;;;;;;5073387;28;20036;-52
2024/03/27 10:31:06;;;;;;;4.30;2.67;;;11.50;99.90;;;;;;5055560;28;20083;-52
2024/03/27 10:33:31;;;;;;;5.47;2.40;;;11.50;99.90;;;;;;5073426;28;20497;-48
2024/03/27 10:35:58;;;;;;;5.00;3.00;;;11.50;99.90;;;;;;5073367;28;20159;-51
2024/03/27 10:38:28;;;;;;;4.63;2.80;;;11.30;99.90;;;;;;5073216;28;20032;-53
2024/03/27 10:40:56;;;;;;;4.53;2.80;;;11.20;99.90;;;;;;5073224;28;20453;-52
2024/03/27 10:43:54;;;;;;;26.98;15.00;;;11.30;99.90;;;;;;5073251;28;20060;-53
2024/03/27 10:46:20;;;;;;;6.00;3.07;;;11.30;99.90;;;;;;5062707;28;20079;-52
2024/03/27 10:48:46;;;;;;;5.20;2.90;;;11.40;99.90;;;;;;5073088;28;20028;-49
2024/03/27 10:51:13;;;;;;;5.40;3.00;;;11.40;99.90;;;;;;5072984;28;20382;-51
2024/03/27 10:53:41;;;;;;;6.63;3.47;;;11.30;99.90;;;;;;5072938;28;20314;-49
2024/03/27 10:56:09;;;;;;;6.00;3.63;;;11.20;99.90;;;;;;5054853;28;20472;-49
2024/03/27 10:58:36;;;;;;;9.02;4.68;;;11.00;99.90;;;;;;5072816;28;20028;-50
2024/03/27 11:01:02;;;;;;;5.87;3.43;;;10.90;99.90;;;;;;5072799;28;20025;-49
2024/03/27 11:03:29;;;;;;;6.63;3.80;;;10.80;99.90;;;;;;5072710;28;20051;-51
2024/03/27 11:05:57;;;;;;;8.33;4.10;;;10.70;99.90;;;;;;5072517;28;20028;-50
2024/03/27 11:08:23;;;;;;;9.53;4.67;;;10.60;99.90;;;;;;5072548;28;20033;-51
2024/03/27 11:10:49;;;;;;;7.53;4.13;;;10.60;99.90;;;;;;5072598;28;20033;-50
2024/03/27 11:13:15;;;;;;;8.20;4.60;;;10.50;99.90;;;;;;5072550;28;20032;-48
2024/03/27 11:15:41;;;;;;;7.00;4.30;;;10.50;99.90;;;;;;5072352;28;20033;-49
2024/03/27 11:18:15;;;;;;;8.23;4.60;;;10.40;99.90;;;;;;5054624;28;20036;-54
2024/03/27 11:20:53;;;;;;;7.70;4.60;;;10.40;99.90;;;;;;5072349;28;20109;-49
2024/03/27 11:23:28;;;;;;;8.23;4.73;;;10.30;99.90;;;;;;5072414;28;20532;-50
2024/03/27 11:25:54;;;;;;;9.73;5.27;;;10.40;99.90;;;;;;5072294;28;20021;-52
2024/03/27 11:28:20;;;;;;;9.20;5.37;;;10.40;99.90;;;;;;5072090;28;20032;-50
2024/03/27 11:30:47;;;;;;;8.40;5.20;;;10.40;99.90;;;;;;5072070;28;20031;-50
2024/03/27 11:33:13;;;;;;;9.10;5.43;;;10.40;99.90;;;;;;5072651;28;20051;-48
2024/03/27 11:35:40;;;;;;;9.43;5.87;;;10.30;99.90;;;;;;5071978;28;20040;-50
2024/03/27 11:38:06;;;;;;;9.13;5.60;;;10.20;99.90;;;;;;5072104;28;20071;-52
2024/03/27 11:40:32;;;;;;;9.70;6.33;;;10.00;99.90;;;;;;5072057;28;20059;-49
2024/03/27 11:42:58;;;;;;;9.33;5.67;;;10.00;99.90;;;;;;5054217;28;20064;-49
2024/03/27 11:45:25;;;;;;;10.03;6.50;;;9.90;99.90;;;;;;5053978;28;20097;-48
2024/03/27 11:47:56;;;;;;;10.60;6.53;;;9.90;99.90;;;;;;5071950;28;20103;-49
2024/03/27 11:50:25;;;;;;;10.17;6.23;;;9.80;99.90;;;;;;5072106;28;20082;-48
2024/03/27 11:52:51;;;;;;;10.23;6.10;;;9.90;99.90;;;;;;5072058;28;20393;-50
2024/03/27 11:55:19;;;;;;;11.13;6.53;;;9.90;99.90;;;;;;5071639;28;20028;-49
2024/03/27 11:57:46;;;;;;;12.60;6.50;;;9.80;99.90;;;;;;5071585;28;20032;-52
2024/03/27 12:00:12;;;;;;;11.90;7.50;;;9.80;99.90;;;;;;5071675;28;20028;-51
2024/03/27 12:02:41;;;;;;;10.53;6.30;;;9.90;99.90;;;;;;5071794;28;20467;-53
2024/03/27 12:05:08;;;;;;;12.43;7.15;;;10.00;99.90;;;;;;5071790;28;20028;-54
2024/03/27 12:07:34;;;;;;;9.97;6.30;;;10.10;99.90;;;;;;5072064;28;20056;-49
2024/03/27 12:10:03;;;;;;;9.77;6.03;;;10.30;99.90;;;;;;5071707;28;20028;-53
2024/03/27 12:12:32;;;;;;;8.52;6.20;;;10.40;99.90;;;;;;5071759;28;20024;-53
2024/03/27 12:14:58;;;;;;;8.35;5.30;;;10.40;99.90;;;;;;5071552;28;20024;-51
2024/03/27 12:17:31;;;;;;;6.60;4.37;;;10.40;99.90;;;;;;5053638;28;20477;-50
2024/03/27 12:20:00;;;;;;;6.07;4.17;;;10.40;99.90;;;;;;5071687;28;20028;-49
2024/03/27 12:22:26;;;;;;;5.50;3.30;;;10.30;99.90;;;;;;5071631;28;20020;-52
2024/03/27 12:24:52;;;;;;;5.47;3.40;;;10.20;99.90;;;;;;5053604;28;20037;-48
2024/03/27 12:27:21;;;;;;;5.00;3.30;;;10.20;99.90;;;;;;5071587;28;20154;-52
2024/03/27 12:29:49;;;;;;;6.40;3.53;;;10.10;99.90;;;;;;5071578;28;20047;-53
2024/03/27 12:32:19;;;;;;;6.10;3.60;;;10.10;99.90;;;;;;5071814;28;20398;-52
2024/03/27 12:34:44;;;;;;;5.93;3.50;;;10.10;99.90;;;;;;5071609;28;20036;-51
2024/03/27 12:37:10;;;;;;;5.33;3.50;;;10.10;99.90;;;;;;5071652;28;20123;-51
2024/03/27 12:39:37;;;;;;;6.23;3.83;;;10.10;99.90;;;;;;5071290;28;20028;-51
2024/03/27 12:42:03;;;;;;;6.07;4.10;;;10.10;99.90;;;;;;5071468;28;20064;-52
2024/03/27 12:44:30;;;;;;;6.87;4.30;;;10.10;99.90;;;;;;5071465;28;20386;-54